Time;durP1;ratioP1;P1;durP2;ratioP2;P2;SDS_P1;SDS_P2;PMS_P1;PMS_P2;Temp;Humidity;BMP_temperature;BMP_pressure;BME280_temperature;BME280_humidity;BME280_pressure;Samples;Min_cycle;Max_cycle;Signal;HPM_P1;HPM_P2
2023/11/17 00:01:57;;;;;;;0.10;0.10;;;7.70;99.90;;;;;;5056906;28;20189;-79
2023/11/17 00:04:23;;;;;;;0.00;0.00;;;7.80;99.90;;;;;;5058910;28;20186;-77
2023/11/17 00:06:48;;;;;;;0.10;0.10;;;7.70;99.90;;;;;;5059013;28;20215;-78
2023/11/17 00:09:15;;;;;;;0.10;0.10;;;7.80;99.90;;;;;;5060414;28;20189;-78
2023/11/17 00:11:41;;;;;;;0.10;0.10;;;7.90;99.90;;;;;;5060927;28;20680;-78
2023/11/17 00:14:07;;;;;;;0.00;0.00;;;7.90;99.90;;;;;;5058936;28;20256;-77
2023/11/17 00:16:33;;;;;;;0.00;0.00;;;8.00;99.90;;;;;;5058900;28;20664;-78
2023/11/17 00:18:59;;;;;;;0.10;0.10;;;8.00;99.90;;;;;;5059575;28;20524;-78
2023/11/17 00:21:26;;;;;;;0.03;0.03;;;8.00;99.90;;;;;;5058119;28;20654;-78
2023/11/17 00:23:51;;;;;;;0.10;0.10;;;8.10;99.90;;;;;;5058894;28;20207;-77
2023/11/17 00:26:17;;;;;;;0.10;0.10;;;8.10;99.90;;;;;;5059773;28;20271;-78
2023/11/17 00:28:43;;;;;;;0.10;0.10;;;8.10;99.90;;;;;;5058224;28;20188;-78
2023/11/17 00:31:09;;;;;;;0.10;0.10;;;8.00;99.90;;;;;;5057636;28;20180;-78
2023/11/17 00:33:36;;;;;;;0.00;0.00;;;8.10;99.90;;;;;;5059279;28;20572;-78
2023/11/17 00:36:02;;;;;;;0.10;0.10;;;8.10;99.90;;;;;;5059355;28;20197;-78
2023/11/17 00:38:31;;;;;;;0.10;0.10;;;8.20;99.90;;;;;;5058159;28;20201;-78
2023/11/17 00:41:00;;;;;;;0.10;0.10;;;8.30;99.90;;;;;;5060015;28;20176;-78
2023/11/17 00:43:29;;;;;;;0.10;0.10;;;8.30;99.90;;;;;;5060263;28;20181;-78
2023/11/17 00:45:57;;;;;;;0.10;0.10;;;8.30;99.90;;;;;;5058924;28;20174;-78
2023/11/17 00:48:23;;;;;;;0.10;0.10;;;8.40;99.90;;;;;;5059814;28;20223;-78
2023/11/17 00:50:49;;;;;;;0.10;0.10;;;8.40;99.90;;;;;;5056324;28;20239;-78
2023/11/17 00:53:16;;;;;;;0.10;0.10;;;8.40;99.90;;;;;;5056376;28;20212;-78
2023/11/17 00:55:41;;;;;;;0.00;0.00;;;8.40;99.90;;;;;;5057170;28;20220;-78
2023/11/17 00:58:08;;;;;;;0.10;0.10;;;8.40;99.90;;;;;;5056635;28;20302;-78
2023/11/17 01:00:34;;;;;;;0.10;0.10;;;8.40;99.90;;;;;;5058043;28;20187;-78
2023/11/17 01:02:59;;;;;;;0.10;0.10;;;8.30;99.90;;;;;;5059260;28;20176;-78
2023/11/17 01:05:25;;;;;;;0.10;0.10;;;8.40;99.90;;;;;;5058873;28;20237;-78
2023/11/17 01:07:51;;;;;;;0.10;0.10;;;8.40;99.90;;;;;;5058136;28;20204;-78
2023/11/17 01:10:16;;;;;;;0.10;0.10;;;8.30;99.90;;;;;;5057351;28;20188;-78
2023/11/17 01:12:42;;;;;;;0.10;0.10;;;8.30;99.90;;;;;;5060313;28;20193;-78
2023/11/17 01:15:08;;;;;;;0.10;0.10;;;8.30;99.90;;;;;;5056669;28;20286;-78
2023/11/17 01:17:33;;;;;;;0.10;0.10;;;8.30;99.90;;;;;;5057319;28;20311;-78
2023/11/17 01:19:59;;;;;;;0.10;0.10;;;8.40;99.90;;;;;;5060048;28;20266;-77
2023/11/17 01:22:24;;;;;;;0.00;0.00;;;8.30;99.90;;;;;;5059973;28;20255;-78
2023/11/17 01:24:50;;;;;;;0.10;0.10;;;8.40;99.90;;;;;;5059118;28;20178;-77
2023/11/17 01:27:16;;;;;;;0.10;0.10;;;8.40;99.90;;;;;;5058091;28;20254;-78
2023/11/17 01:29:41;;;;;;;0.10;0.10;;;8.40;99.90;;;;;;5058354;28;20194;-77
2023/11/17 01:32:07;;;;;;;0.10;0.10;;;8.40;99.90;;;;;;5058993;28;20806;-78
2023/11/17 01:34:33;;;;;;;0.10;0.10;;;8.40;99.90;;;;;;5059160;28;20253;-78
2023/11/17 01:36:59;;;;;;;0.10;0.10;;;8.40;99.90;;;;;;5057870;28;20205;-78
2023/11/17 01:39:24;;;;;;;0.10;0.10;;;8.40;99.90;;;;;;5057868;28;20180;-78
2023/11/17 01:41:50;;;;;;;0.10;0.10;;;8.50;99.90;;;;;;5058557;28;20181;-77
2023/11/17 01:44:16;;;;;;;0.10;0.10;;;8.50;99.90;;;;;;5058052;28;20544;-77
2023/11/17 01:46:44;;;;;;;0.10;0.10;;;8.50;99.90;;;;;;5057432;28;20288;-78
2023/11/17 01:49:12;;;;;;;0.10;0.10;;;8.50;99.90;;;;;;5058268;28;20185;-78
2023/11/17 01:51:38;;;;;;;0.10;0.10;;;8.50;99.90;;;;;;5059217;28;20683;-77
2023/11/17 01:54:04;;;;;;;0.00;0.00;;;8.60;99.90;;;;;;5057121;28;20270;-77
2023/11/17 01:56:31;;;;;;;0.10;0.10;;;8.50;99.90;;;;;;5057497;28;20255;-77
2023/11/17 01:58:57;;;;;;;0.03;0.03;;;8.50;99.90;;;;;;5055036;28;20187;-78
2023/11/17 02:01:22;;;;;;;0.00;0.00;;;8.50;99.90;;;;;;5056913;28;20248;-78
2023/11/17 02:03:48;;;;;;;0.10;0.10;;;8.40;99.90;;;;;;5061030;28;20248;-78
2023/11/17 02:06:57;;;;;;;0.10;0.10;;;8.50;99.90;;;;;;5060867;28;20694;-78
2023/11/17 02:09:30;;;;;;;0.10;0.10;;;8.50;99.90;;;;;;5059488;28;20336;-77
2023/11/17 02:12:05;;;;;;;0.10;0.10;;;8.40;99.90;;;;;;5060949;28;20186;-77
2023/11/17 02:14:36;;;;;;;0.10;0.10;;;8.40;99.90;;;;;;5058629;28;20546;-78
2023/11/17 02:17:05;;;;;;;0.10;0.10;;;8.40;99.90;;;;;;5056888;28;21166;-77
2023/11/17 02:19:45;;;;;;;0.10;0.10;;;8.50;99.90;;;;;;5062056;28;20219;-78
2023/11/17 02:22:17;;;;;;;0.10;0.10;;;8.50;99.90;;;;;;5060389;28;20180;-78
2023/11/17 02:25:01;;;;;;;0.10;0.10;;;8.50;99.90;;;;;;5060930;28;20208;-78
2023/11/17 02:27:38;;;;;;;0.10;0.10;;;8.40;99.90;;;;;;5060858;28;20309;-77
2023/11/17 02:30:06;;;;;;;0.10;0.10;;;8.40;99.90;;;;;;5058877;28;20227;-78
2023/11/17 02:32:32;;;;;;;0.10;0.10;;;8.30;99.90;;;;;;5060290;28;20188;-78
2023/11/17 02:35:01;;;;;;;0.10;0.10;;;8.30;99.90;;;;;;5061989;28;20672;-78
2023/11/17 02:37:26;;;;;;;0.10;0.10;;;8.20;99.90;;;;;;5059235;28;20229;-78
2023/11/17 02:39:55;;;;;;;0.10;0.10;;;8.20;99.90;;;;;;5060821;28;20184;-78
2023/11/17 02:42:24;;;;;;;0.10;0.10;;;8.30;99.90;;;;;;5061205;28;20560;-78
2023/11/17 02:44:50;;;;;;;0.10;0.10;;;8.30;99.90;;;;;;5061748;28;20185;-78
2023/11/17 02:47:27;;;;;;;0.10;0.10;;;8.20;99.90;;;;;;5060276;28;20258;-77
2023/11/17 02:49:58;;;;;;;0.10;0.10;;;8.10;99.90;;;;;;5062526;28;20264;-77
2023/11/17 02:52:31;;;;;;;0.10;0.10;;;8.10;99.90;;;;;;5058259;28;20641;-77
2023/11/17 02:55:01;;;;;;;0.10;0.10;;;8.20;99.90;;;;;;5058565;28;20183;-77
2023/11/17 02:57:28;;;;;;;0.10;0.10;;;8.20;99.90;;;;;;5058380;28;20216;-77
2023/11/17 02:59:55;;;;;;;0.10;0.10;;;8.20;99.90;;;;;;5060235;28;20181;-77
2023/11/17 03:02:20;;;;;;;0.10;0.10;;;8.10;99.90;;;;;;5060584;28;20660;-78
2023/11/17 03:04:53;;;;;;;0.10;0.10;;;8.10;99.90;;;;;;5061005;28;20212;-76
2023/11/17 03:07:19;;;;;;;0.10;0.10;;;8.00;99.90;;;;;;5060456;28;20204;-77
2023/11/17 03:09:45;;;;;;;0.10;0.10;;;8.00;99.90;;;;;;5060419;28;20193;-78
2023/11/17 03:12:10;;;;;;;0.10;0.10;;;7.90;99.90;;;;;;5060277;28;20647;-78
2023/11/17 03:14:39;;;;;;;0.10;0.10;;;7.70;99.90;;;;;;5058655;28;20209;-78
2023/11/17 03:17:09;;;;;;;0.10;0.10;;;7.70;99.90;;;;;;5058717;28;20245;-78
2023/11/17 03:19:36;;;;;;;0.10;0.10;;;7.70;99.90;;;;;;5060277;28;20185;-78
2023/11/17 03:22:03;;;;;;;0.00;0.00;;;7.60;99.90;;;;;;5060681;28;20190;-78
2023/11/17 03:24:29;;;;;;;0.10;0.10;;;7.60;99.90;;;;;;5062037;28;20195;-78
2023/11/17 03:26:56;;;;;;;0.10;0.10;;;7.50;99.90;;;;;;5059187;28;20213;-78
2023/11/17 03:29:24;;;;;;;0.10;0.10;;;7.50;99.90;;;;;;5058861;28;20224;-78
2023/11/17 03:31:54;;;;;;;0.10;0.10;;;7.50;99.90;;;;;;5059590;28;20226;-78
2023/11/17 03:34:23;;;;;;;0.10;0.10;;;7.50;99.90;;;;;;5058961;28;20188;-78
2023/11/17 03:37:00;;;;;;;0.03;0.03;;;7.50;99.90;;;;;;5057780;28;20308;-78
2023/11/17 03:39:31;;;;;;;0.10;0.10;;;7.60;99.90;;;;;;5058606;28;20182;-78
2023/11/17 03:41:58;;;;;;;0.10;0.10;;;7.60;99.90;;;;;;5059895;28;20200;-78
2023/11/17 03:44:24;;;;;;;0.03;0.03;;;7.50;99.90;;;;;;5057395;28;20191;-78
2023/11/17 03:46:53;;;;;;;0.03;0.03;;;7.50;99.90;;;;;;5059903;28;20212;-77
2023/11/17 03:49:20;;;;;;;0.10;0.10;;;7.50;99.90;;;;;;5059255;28;20515;-77
2023/11/17 03:51:49;;;;;;;0.10;0.10;;;7.50;99.90;;;;;;5061690;28;20268;-77
2023/11/17 03:54:21;;;;;;;0.10;0.10;;;7.60;99.90;;;;;;5061091;28;20223;-77
2023/11/17 03:56:52;;;;;;;0.10;0.10;;;7.50;99.90;;;;;;5060855;28;20212;-78
2023/11/17 03:59:18;;;;;;;0.10;0.10;;;7.50;99.90;;;;;;5059302;28;20189;-78
2023/11/17 04:01:45;;;;;;;0.10;0.10;;;7.40;99.90;;;;;;5059980;28;20573;-78
2023/11/17 04:04:15;;;;;;;0.00;0.00;;;7.20;99.90;;;;;;5058552;28;21030;-78
2023/11/17 04:06:41;;;;;;;0.10;0.10;;;7.20;99.90;;;;;;5058339;28;20202;-78
2023/11/17 04:09:07;;;;;;;0.10;0.10;;;7.20;99.90;;;;;;5057696;28;20219;-78
2023/11/17 04:11:33;;;;;;;0.10;0.10;;;7.10;99.90;;;;;;5059753;28;20187;-78
2023/11/17 04:13:59;;;;;;;0.10;0.10;;;7.10;99.90;;;;;;5054784;28;20692;-77
2023/11/17 04:16:25;;;;;;;0.10;0.10;;;7.20;99.90;;;;;;5058852;28;20188;-77
2023/11/17 04:18:52;;;;;;;0.10;0.10;;;7.10;99.90;;;;;;5056502;28;20189;-77
2023/11/17 04:21:18;;;;;;;0.10;0.10;;;7.10;99.90;;;;;;5057746;28;20191;-77
2023/11/17 04:23:43;;;;;;;0.10;0.10;;;7.10;99.90;;;;;;5059756;28;20176;-78
2023/11/17 04:26:12;;;;;;;0.10;0.10;;;7.00;99.90;;;;;;5058535;28;20186;-78
2023/11/17 04:28:38;;;;;;;0.10;0.10;;;7.00;99.90;;;;;;5057333;28;20191;-78
2023/11/17 04:31:05;;;;;;;0.10;0.10;;;7.10;99.90;;;;;;5058919;28;20203;-78
2023/11/17 04:33:31;;;;;;;0.10;0.10;;;7.10;99.90;;;;;;5060093;28;20195;-78
2023/11/17 04:35:56;;;;;;;0.00;0.00;;;7.10;99.90;;;;;;5057736;28;20185;-77
2023/11/17 04:38:22;;;;;;;0.00;0.00;;;7.10;99.90;;;;;;5058109;28;20229;-78
2023/11/17 04:40:47;;;;;;;0.10;0.10;;;7.10;99.90;;;;;;5057808;28;20197;-77
2023/11/17 04:43:13;;;;;;;0.10;0.10;;;7.20;99.90;;;;;;5051879;28;21113;-78
2023/11/17 04:45:42;;;;;;;0.10;0.10;;;7.20;99.90;;;;;;5059658;28;20176;-78
2023/11/17 04:48:09;;;;;;;0.00;0.00;;;7.20;99.90;;;;;;5054462;28;20210;-78
2023/11/17 04:50:35;;;;;;;0.10;0.10;;;7.30;99.90;;;;;;5056988;28;20601;-79
2023/11/17 04:53:01;;;;;;;0.10;0.10;;;7.30;99.90;;;;;;5056442;28;20197;-79
2023/11/17 04:55:27;;;;;;;0.10;0.10;;;7.30;99.90;;;;;;5057256;28;20242;-78
2023/11/17 04:57:52;;;;;;;0.10;0.10;;;7.40;99.90;;;;;;5056239;28;20232;-78
2023/11/17 05:00:19;;;;;;;0.10;0.10;;;7.30;99.90;;;;;;5058262;28;20490;-78
2023/11/17 05:02:46;;;;;;;0.00;0.00;;;7.10;99.90;;;;;;5053724;28;20214;-78
2023/11/17 05:05:12;;;;;;;0.10;0.10;;;7.10;99.90;;;;;;5056719;28;20240;-78
2023/11/17 05:07:44;;;;;;;0.00;0.00;;;7.10;99.90;;;;;;5058682;28;20209;-78
2023/11/17 05:10:11;;;;;;;0.10;0.10;;;7.10;99.90;;;;;;5057722;28;20174;-78
2023/11/17 05:12:37;;;;;;;0.10;0.10;;;7.10;99.90;;;;;;5056668;28;20643;-78
2023/11/17 05:15:07;;;;;;;0.10;0.10;;;7.10;99.90;;;;;;5058714;28;20243;-79
2023/11/17 05:17:43;;;;;;;0.10;0.10;;;7.10;99.90;;;;;;5057532;28;20216;-78
2023/11/17 05:20:10;;;;;;;0.03;0.03;;;7.00;99.90;;;;;;5056919;28;20194;-77
2023/11/17 05:22:36;;;;;;;0.07;0.07;;;7.00;99.90;;;;;;5052726;28;20240;-77
2023/11/17 05:25:02;;;;;;;0.10;0.10;;;6.90;99.90;;;;;;5057596;28;20188;-78
2023/11/17 05:27:28;;;;;;;0.10;0.10;;;6.80;99.90;;;;;;5049274;28;20213;-78
2023/11/17 05:29:53;;;;;;;0.00;0.00;;;6.70;99.90;;;;;;5056820;28;20317;-78
2023/11/17 05:32:19;;;;;;;0.10;0.10;;;6.70;99.90;;;;;;5054236;28;20215;-78
2023/11/17 05:34:44;;;;;;;0.10;0.10;;;6.70;99.90;;;;;;5054184;28;20835;-78
2023/11/17 05:37:10;;;;;;;0.10;0.10;;;6.60;99.90;;;;;;5054518;28;20212;-78
2023/11/17 05:39:35;;;;;;;0.10;0.10;;;6.60;99.90;;;;;;5056990;28;20225;-78
2023/11/17 05:42:03;;;;;;;0.10;0.10;;;6.50;99.90;;;;;;5057459;28;20584;-78
2023/11/17 05:44:29;;;;;;;0.00;0.00;;;6.60;99.90;;;;;;5060180;28;20562;-77
2023/11/17 05:46:55;;;;;;;0.10;0.10;;;6.60;99.90;;;;;;5062096;28;20210;-78
2023/11/17 05:49:20;;;;;;;0.10;0.10;;;6.60;99.90;;;;;;5060316;28;20673;-78
2023/11/17 05:51:47;;;;;;;0.00;0.00;;;6.60;99.90;;;;;;5061778;28;20184;-77
2023/11/17 05:54:12;;;;;;;0.10;0.10;;;6.60;99.90;;;;;;5058759;28;20177;-78
2023/11/17 05:56:38;;;;;;;0.10;0.10;;;6.70;99.90;;;;;;5060279;28;20266;-78
2023/11/17 05:59:06;;;;;;;0.00;0.00;;;6.70;99.90;;;;;;5060522;28;20194;-77
2023/11/17 06:01:32;;;;;;;0.10;0.10;;;6.70;99.90;;;;;;5061810;28;20180;-77
2023/11/17 06:03:57;;;;;;;0.10;0.10;;;6.70;99.90;;;;;;5061280;28;20178;-78
2023/11/17 06:06:23;;;;;;;0.10;0.10;;;6.70;99.90;;;;;;5059235;28;21436;-78
2023/11/17 06:08:48;;;;;;;0.10;0.10;;;6.70;99.90;;;;;;5058743;28;20185;-79
2023/11/17 06:11:14;;;;;;;0.10;0.10;;;6.60;99.90;;;;;;5059143;28;20180;-78
2023/11/17 06:13:41;;;;;;;0.00;0.00;;;6.60;99.90;;;;;;5059263;28;20207;-78
2023/11/17 06:16:07;;;;;;;0.10;0.10;;;6.70;99.90;;;;;;5062226;28;20328;-78
2023/11/17 06:18:32;;;;;;;0.10;0.10;;;6.70;99.90;;;;;;5058413;28;20219;-79
2023/11/17 06:20:58;;;;;;;0.00;0.00;;;6.70;99.90;;;;;;5061343;28;20184;-79
2023/11/17 06:23:23;;;;;;;0.10;0.10;;;6.70;99.90;;;;;;5058489;28;20275;-79
2023/11/17 06:25:49;;;;;;;0.00;0.00;;;6.80;99.90;;;;;;5060609;28;20177;-79
2023/11/17 06:28:15;;;;;;;0.10;0.10;;;6.90;99.90;;;;;;5061710;28;20199;-78
2023/11/17 06:30:41;;;;;;;0.10;0.10;;;7.10;99.90;;;;;;5063256;28;20176;-79
2023/11/17 06:33:06;;;;;;;0.10;0.10;;;7.20;99.90;;;;;;5058311;28;20766;-78
2023/11/17 06:35:32;;;;;;;0.10;0.10;;;7.20;99.90;;;;;;5061609;28;20193;-78
2023/11/17 06:37:57;;;;;;;0.10;0.10;;;7.30;99.90;;;;;;5063825;28;20916;-79
2023/11/17 06:40:23;;;;;;;0.10;0.10;;;7.40;99.90;;;;;;5062176;28;20176;-79
2023/11/17 06:42:48;;;;;;;0.10;0.10;;;7.40;99.90;;;;;;5060432;28;20263;-79
2023/11/17 06:45:14;;;;;;;0.10;0.10;;;7.30;99.90;;;;;;5061216;28;20579;-79
2023/11/17 06:47:43;;;;;;;0.10;0.10;;;7.20;99.90;;;;;;5062029;28;20919;-79
2023/11/17 06:50:11;;;;;;;0.00;0.00;;;7.10;99.90;;;;;;5055293;28;20752;-79
2023/11/17 06:52:37;;;;;;;0.00;0.00;;;6.90;99.90;;;;;;5058933;28;20194;-78
2023/11/17 06:55:04;;;;;;;0.10;0.10;;;7.00;99.90;;;;;;5056549;28;20188;-79
2023/11/17 06:57:32;;;;;;;0.10;0.10;;;7.10;99.90;;;;;;5057517;28;20247;-79
2023/11/17 06:59:57;;;;;;;0.10;0.10;;;7.10;99.90;;;;;;5060991;28;20187;-79
2023/11/17 07:02:24;;;;;;;0.10;0.10;;;6.90;99.90;;;;;;5059896;28;20173;-79
2023/11/17 07:04:50;;;;;;;0.20;0.20;;;6.80;99.90;;;;;;5059166;28;20173;-79
2023/11/17 07:07:15;;;;;;;0.10;0.10;;;6.90;99.90;;;;;;5059862;28;20695;-78
2023/11/17 07:09:42;;;;;;;0.10;0.10;;;7.00;99.90;;;;;;5059639;28;20728;-78
2023/11/17 07:12:10;;;;;;;0.10;0.10;;;7.00;99.90;;;;;;5058878;28;20210;-79
2023/11/17 07:14:35;;;;;;;0.00;0.00;;;7.10;99.90;;;;;;5058693;28;20263;-79
2023/11/17 07:17:04;;;;;;;0.10;0.10;;;7.10;99.90;;;;;;5058588;28;20204;-79
2023/11/17 07:19:32;;;;;;;0.00;0.00;;;7.10;99.90;;;;;;5059243;28;20180;-79
2023/11/17 07:21:58;;;;;;;0.10;0.10;;;7.10;99.90;;;;;;5058812;28;20672;-78
2023/11/17 07:24:24;;;;;;;0.10;0.10;;;7.30;99.90;;;;;;5057533;28;20271;-80
2023/11/17 07:26:49;;;;;;;0.10;0.10;;;7.20;99.90;;;;;;5061684;28;20214;-80
2023/11/17 07:29:16;;;;;;;0.10;0.10;;;7.30;99.90;;;;;;5058969;28;20197;-79
2023/11/17 07:31:46;;;;;;;0.10;0.10;;;7.20;99.90;;;;;;5059346;28;20259;-79
2023/11/17 07:34:15;;;;;;;0.00;0.00;;;7.30;99.90;;;;;;5060827;28;20773;-79
2023/11/17 07:36:48;;;;;;;0.07;0.07;;;7.20;99.90;;;;;;5057527;28;20216;-79
2023/11/17 07:39:13;;;;;;;0.10;0.10;;;7.30;99.90;;;;;;5055740;28;20268;-80
2023/11/17 07:41:40;;;;;;;0.10;0.10;;;7.30;99.90;;;;;;5053798;28;20723;-80
2023/11/17 07:44:07;;;;;;;0.10;0.10;;;7.50;99.90;;;;;;5056556;28;20184;-80
2023/11/17 07:46:36;;;;;;;0.10;0.10;;;7.60;99.90;;;;;;5057026;28;20177;-80
2023/11/17 07:49:10;;;;;;;0.10;0.10;;;7.70;99.90;;;;;;5057866;28;20181;-80
2023/11/17 07:51:36;;;;;;;0.00;0.00;;;7.80;99.90;;;;;;5056737;28;20188;-78
2023/11/17 07:54:02;;;;;;;0.10;0.10;;;7.80;99.90;;;;;;5059084;28;20627;-79
2023/11/17 07:56:29;;;;;;;0.10;0.10;;;7.90;99.90;;;;;;5052846;28;20188;-80
2023/11/17 07:58:56;;;;;;;0.00;0.00;;;7.90;99.90;;;;;;5056750;28;20663;-80
2023/11/17 08:01:23;;;;;;;0.10;0.10;;;7.90;99.90;;;;;;5052172;28;20171;-79
2023/11/17 08:03:49;;;;;;;0.10;0.10;;;8.00;99.90;;;;;;5058250;28;20274;-79
2023/11/17 08:06:14;;;;;;;0.00;0.00;;;7.80;99.90;;;;;;5055320;28;20606;-80
2023/11/17 08:08:40;;;;;;;0.10;0.10;;;7.70;99.90;;;;;;5056865;28;20520;-80
2023/11/17 08:11:08;;;;;;;0.10;0.10;;;7.60;99.90;;;;;;5057309;28;20216;-79
2023/11/17 08:13:33;;;;;;;0.10;0.10;;;7.50;99.90;;;;;;5060192;28;20224;-79
2023/11/17 08:16:00;;;;;;;0.10;0.10;;;7.40;99.90;;;;;;5059565;28;20202;-79
2023/11/17 08:18:25;;;;;;;0.07;0.07;;;7.30;99.90;;;;;;5057079;28;20209;-79
2023/11/17 08:20:52;;;;;;;0.00;0.00;;;7.20;99.90;;;;;;5056985;28;20188;-80
2023/11/17 08:23:19;;;;;;;0.00;0.00;;;7.30;99.90;;;;;;5061346;28;20181;-80
2023/11/17 08:25:45;;;;;;;0.10;0.10;;;7.30;99.90;;;;;;5058477;28;20427;-80
2023/11/17 08:28:11;;;;;;;0.10;0.10;;;7.30;99.90;;;;;;5057614;28;20740;-79
2023/11/17 08:30:41;;;;;;;0.10;0.10;;;7.40;99.90;;;;;;5057577;28;20282;-79
2023/11/17 08:33:07;;;;;;;0.10;0.10;;;7.40;99.90;;;;;;5059619;28;20227;-79
2023/11/17 08:35:33;;;;;;;0.07;0.07;;;7.50;99.90;;;;;;5058710;28;20193;-79
2023/11/17 08:37:58;;;;;;;0.10;0.10;;;7.50;99.90;;;;;;5059009;28;20216;-80
2023/11/17 08:40:24;;;;;;;0.10;0.10;;;7.60;99.90;;;;;;5056632;28;20191;-81
2023/11/17 08:42:50;;;;;;;0.00;0.00;;;7.60;99.90;;;;;;5057644;28;20183;-81
2023/11/17 08:45:17;;;;;;;0.00;0.00;;;7.70;99.90;;;;;;5059034;28;20962;-80
2023/11/17 08:47:45;;;;;;;0.10;0.10;;;7.80;99.90;;;;;;5057835;28;20357;-80
2023/11/17 08:50:12;;;;;;;0.10;0.10;;;7.80;99.90;;;;;;5057571;28;20649;-78
2023/11/17 08:52:42;;;;;;;0.10;0.10;;;7.90;99.90;;;;;;5057664;28;20899;-81
2023/11/17 08:55:09;;;;;;;0.10;0.10;;;7.90;99.90;;;;;;5057073;28;20177;-80
2023/11/17 08:57:35;;;;;;;0.10;0.10;;;8.00;99.90;;;;;;5056895;28;20273;-80
2023/11/17 09:00:12;;;;;;;0.00;0.00;;;8.30;99.90;;;;;;5057135;28;20727;-80
2023/11/17 09:02:46;;;;;;;0.10;0.10;;;8.50;99.90;;;;;;5056552;28;20549;-81
2023/11/17 09:05:13;;;;;;;0.10;0.10;;;8.70;99.90;;;;;;5057241;28;20186;-80
2023/11/17 09:07:40;;;;;;;0.10;0.10;;;8.90;99.90;;;;;;5056587;28;21183;-80
2023/11/17 09:10:08;;;;;;;0.00;0.00;;;9.00;99.90;;;;;;5055457;28;20613;-79
2023/11/17 09:12:36;;;;;;;0.10;0.10;;;8.60;99.90;;;;;;5074424;28;20409;-79
2023/11/17 09:15:02;;;;;;;0.10;0.10;;;8.50;99.90;;;;;;5057946;28;20188;-80
2023/11/17 09:17:28;;;;;;;0.10;0.10;;;8.40;99.90;;;;;;5059622;28;20567;-80
2023/11/17 09:19:53;;;;;;;0.10;0.10;;;8.40;99.90;;;;;;5060557;28;20192;-79
2023/11/17 09:22:20;;;;;;;0.10;0.10;;;8.60;99.90;;;;;;5060374;28;20180;-80
2023/11/17 09:24:46;;;;;;;0.10;0.10;;;8.70;99.90;;;;;;5055671;28;20183;-79
2023/11/17 09:27:11;;;;;;;0.10;0.10;;;8.90;99.90;;;;;;5058924;28;20298;-80
2023/11/17 09:29:37;;;;;;;0.10;0.10;;;9.00;99.90;;;;;;5058195;28;20378;-80
2023/11/17 09:32:03;;;;;;;0.10;0.10;;;9.10;99.90;;;;;;5058380;28;21664;-80
2023/11/17 09:34:28;;;;;;;0.10;0.10;;;9.20;99.90;;;;;;5059826;28;20196;-80
2023/11/17 09:36:55;;;;;;;0.10;0.10;;;9.30;99.90;;;;;;5059150;28;20216;-79
2023/11/17 09:39:20;;;;;;;0.10;0.10;;;9.50;99.90;;;;;;5061837;28;20636;-79
2023/11/17 09:41:48;;;;;;;0.10;0.10;;;9.60;99.90;;;;;;5061529;28;20181;-79
2023/11/17 09:44:15;;;;;;;0.10;0.10;;;9.70;99.90;;;;;;5064041;28;20181;-80
2023/11/17 09:46:52;;;;;;;0.10;0.10;;;9.60;99.90;;;;;;5063285;28;20577;-80
2023/11/17 09:49:19;;;;;;;0.10;0.10;;;9.60;99.90;;;;;;5063524;28;20231;-80
2023/11/17 09:51:46;;;;;;;0.00;0.00;;;9.30;99.90;;;;;;5059440;28;20190;-80
2023/11/17 09:54:13;;;;;;;0.10;0.10;;;9.00;99.90;;;;;;5063207;28;20182;-80
2023/11/17 09:56:42;;;;;;;0.10;0.10;;;8.80;99.90;;;;;;5062685;28;20216;-80
2023/11/17 09:59:09;;;;;;;0.10;0.10;;;8.70;99.90;;;;;;5059567;28;22037;-80
2023/11/17 10:01:36;;;;;;;0.10;0.10;;;8.70;99.90;;;;;;5058330;28;20246;-79
2023/11/17 10:04:02;;;;;;;0.10;0.10;;;8.80;99.90;;;;;;5061233;28;20192;-80
2023/11/17 10:06:30;;;;;;;0.10;0.10;;;8.70;99.90;;;;;;5058250;28;20184;-79
2023/11/17 10:08:58;;;;;;;0.10;0.10;;;8.80;99.90;;;;;;5059613;28;20208;-79
2023/11/17 10:11:25;;;;;;;0.10;0.10;;;8.80;99.90;;;;;;5049013;28;20229;-79
2023/11/17 10:13:53;;;;;;;0.10;0.10;;;9.10;99.90;;;;;;5058643;28;20201;-79
2023/11/17 10:16:20;;;;;;;0.10;0.10;;;9.30;99.90;;;;;;5057594;28;20189;-80
2023/11/17 10:18:47;;;;;;;0.10;0.10;;;9.40;99.90;;;;;;5056938;28;20212;-78
2023/11/17 10:21:15;;;;;;;0.10;0.10;;;9.40;99.90;;;;;;5059868;28;20184;-79
2023/11/17 10:23:41;;;;;;;0.10;0.10;;;9.50;99.90;;;;;;5058233;28;20196;-79
2023/11/17 10:26:07;;;;;;;0.10;0.10;;;9.50;99.90;;;;;;5061176;28;20173;-80
2023/11/17 10:28:36;;;;;;;0.10;0.10;;;9.50;99.90;;;;;;5060659;28;20299;-80
2023/11/17 10:31:05;;;;;;;0.10;0.10;;;9.50;99.90;;;;;;5060275;28;20170;-80
2023/11/17 10:33:33;;;;;;;0.10;0.10;;;9.50;99.90;;;;;;5059378;28;20517;-80
2023/11/17 10:36:29;;;;;;;0.10;0.10;;;9.50;99.90;;;;;;5059368;28;20183;-80
2023/11/17 10:39:04;;;;;;;0.10;0.10;;;9.60;99.90;;;;;;5039899;28;20642;-80
2023/11/17 10:41:33;;;;;;;0.10;0.10;;;9.70;99.90;;;;;;5060084;28;20192;-80
2023/11/17 10:44:03;;;;;;;0.10;0.10;;;9.70;99.90;;;;;;5058776;28;20190;-80
2023/11/17 10:46:35;;;;;;;0.10;0.10;;;9.70;99.90;;;;;;5059339;28;20223;-79
2023/11/17 10:49:02;;;;;;;0.10;0.10;;;9.80;99.90;;;;;;5060538;28;20177;-79
2023/11/17 10:51:28;;;;;;;0.00;0.00;;;9.80;99.90;;;;;;5059328;28;20189;-80
2023/11/17 10:54:13;;;;;;;0.10;0.10;;;9.80;99.90;;;;;;5060893;28;20207;-80
2023/11/17 10:56:40;;;;;;;0.10;0.10;;;9.90;99.90;;;;;;5058571;28;20252;-80
2023/11/17 10:59:09;;;;;;;0.10;0.10;;;9.90;99.90;;;;;;5057664;28;20185;-80
2023/11/17 11:01:40;;;;;;;0.10;0.10;;;9.90;99.90;;;;;;5058548;28;20181;-79
2023/11/17 11:04:14;;;;;;;0.10;0.10;;;9.90;99.90;;;;;;5054881;28;20194;-79
2023/11/17 11:06:42;;;;;;;0.10;0.10;;;10.00;99.90;;;;;;5056792;28;20193;-80
2023/11/17 11:09:08;;;;;;;0.10;0.10;;;10.00;99.90;;;;;;5056417;28;20212;-80
2023/11/17 11:11:35;;;;;;;0.10;0.10;;;10.10;99.90;;;;;;5059620;28;20187;-81
2023/11/17 11:14:01;;;;;;;0.10;0.10;;;10.20;99.90;;;;;;5057733;28;20217;-81
2023/11/17 11:16:32;;;;;;;0.10;0.10;;;10.20;99.90;;;;;;5055850;28;20235;-81
2023/11/17 11:19:02;;;;;;;0.10;0.10;;;10.20;99.90;;;;;;5057353;28;20192;-81
2023/11/17 11:21:30;;;;;;;0.10;0.10;;;10.20;99.90;;;;;;5055285;28;20259;-81
2023/11/17 11:23:59;;;;;;;0.10;0.10;;;9.60;99.90;;;;;;5058680;28;20182;-80
2023/11/17 11:26:26;;;;;;;0.10;0.10;;;9.20;99.90;;;;;;5055953;28;20188;-81
2023/11/17 11:28:52;;;;;;;0.10;0.10;;;9.00;99.90;;;;;;5058265;28;20182;-81
2023/11/17 11:31:20;;;;;;;0.10;0.10;;;8.90;99.90;;;;;;5057478;28;20189;-81
2023/11/17 11:33:49;;;;;;;0.10;0.10;;;9.10;99.90;;;;;;5059172;28;20250;-80
2023/11/17 11:36:18;;;;;;;0.10;0.10;;;9.40;99.90;;;;;;5054575;28;20173;-80
2023/11/17 11:38:47;;;;;;;0.10;0.10;;;9.50;99.90;;;;;;5056824;28;20201;-80
2023/11/17 11:41:22;;;;;;;0.10;0.10;;;9.50;99.90;;;;;;5058617;28;20186;-80
2023/11/17 11:43:49;;;;;;;0.10;0.10;;;9.10;99.90;;;;;;5059704;28;20181;-81
2023/11/17 11:46:17;;;;;;;0.10;0.10;;;8.90;99.90;;;;;;5057631;28;20216;-80
2023/11/17 11:48:47;;;;;;;0.10;0.10;;;8.80;99.90;;;;;;5059563;28;20208;-80
2023/11/17 11:51:14;;;;;;;0.10;0.10;;;8.90;99.90;;;;;;5061042;28;20178;-80
2023/11/17 11:53:54;;;;;;;0.10;0.10;;;9.00;99.90;;;;;;5054296;28;20186;-80
2023/11/17 11:56:21;;;;;;;0.10;0.10;;;9.00;99.90;;;;;;5058657;28;20220;-80
2023/11/17 11:58:49;;;;;;;0.10;0.10;;;9.20;99.90;;;;;;5064164;28;20217;-80
2023/11/17 12:01:19;;;;;;;0.10;0.10;;;9.30;99.90;;;;;;5066247;28;20191;-80
2023/11/17 12:04:01;;;;;;;0.10;0.10;;;9.40;99.90;;;;;;5062237;28;20184;-80
2023/11/17 12:06:29;;;;;;;0.10;0.10;;;9.50;99.90;;;;;;5061612;28;20178;-80
2023/11/17 12:09:09;;;;;;;0.10;0.10;;;9.60;99.90;;;;;;5062408;28;20652;-81
2023/11/17 12:11:46;;;;;;;0.10;0.10;;;9.80;99.90;;;;;;5056295;28;20185;-80
2023/11/17 12:14:15;;;;;;;0.10;0.10;;;9.80;99.90;;;;;;5062036;28;20216;-80
2023/11/17 12:16:54;;;;;;;0.10;0.10;;;9.80;99.90;;;;;;5059259;28;20196;-80
2023/11/17 12:19:27;;;;;;;0.10;0.10;;;9.90;99.90;;;;;;5062295;28;20172;-80
2023/11/17 12:21:54;;;;;;;0.10;0.10;;;9.40;99.90;;;;;;5060737;28;20182;-80
2023/11/17 12:24:27;;;;;;;0.10;0.10;;;9.50;99.90;;;;;;5058280;28;20794;-80
2023/11/17 12:26:55;;;;;;;0.10;0.10;;;9.60;99.90;;;;;;5056027;28;20198;-81
2023/11/17 12:29:24;;;;;;;0.10;0.10;;;9.60;99.90;;;;;;5058794;28;20178;-81
2023/11/17 12:31:54;;;;;;;0.10;0.10;;;9.60;99.90;;;;;;5054316;28;20180;-81
2023/11/17 12:34:20;;;;;;;0.10;0.10;;;9.80;99.90;;;;;;5058288;28;20189;-80
2023/11/17 12:36:51;;;;;;;0.10;0.10;;;9.50;99.90;;;;;;5057926;28;20349;-80
2023/11/17 12:39:20;;;;;;;0.10;0.10;;;9.30;99.90;;;;;;5056289;28;20696;-80
2023/11/17 12:41:50;;;;;;;0.10;0.10;;;9.10;99.90;;;;;;5039984;28;20177;-79
2023/11/17 12:44:18;;;;;;;0.10;0.10;;;9.00;99.90;;;;;;5059946;28;20625;-79
2023/11/17 12:46:44;;;;;;;0.10;0.10;;;9.30;99.90;;;;;;5057066;28;20204;-79
2023/11/17 12:49:12;;;;;;;0.10;0.10;;;9.20;99.90;;;;;;5057129;28;20180;-79
2023/11/17 12:51:37;;;;;;;0.00;0.00;;;9.40;99.90;;;;;;5056867;28;20189;-78
2023/11/17 12:54:06;;;;;;;0.07;0.07;;;9.90;99.90;;;;;;5055243;28;20189;-81
2023/11/17 12:56:32;;;;;;;0.10;0.10;;;9.90;99.90;;;;;;5051922;28;20188;-81
2023/11/17 12:58:58;;;;;;;0.10;0.10;;;10.10;99.90;;;;;;5052429;28;20181;-79
2023/11/17 13:01:26;;;;;;;0.10;0.10;;;10.20;99.90;;;;;;5056110;28;20676;-79